createdAt,value
2017-07-17T03:00:26.433Z,0
2017-07-17T03:01:27.792Z,0
2017-07-17T03:02:49.324Z,0
2017-07-17T03:03:50.680Z,0
2017-07-17T03:05:12.206Z,0
2017-07-17T03:06:13.562Z,0
2017-07-17T03:07:35.092Z,0
2017-07-17T03:08:36.451Z,0
2017-07-17T03:09:57.964Z,0
2017-07-17T03:10:59.322Z,0
2017-07-17T03:12:20.863Z,0
2017-07-17T03:13:22.218Z,0
2017-07-17T03:14:43.735Z,0
2017-07-17T03:15:45.094Z,0
2017-07-17T03:17:06.628Z,0
2017-07-17T03:18:07.987Z,0
2017-07-17T03:19:29.503Z,0
2017-07-17T03:20:30.864Z,0
2017-07-17T03:21:52.395Z,0
2017-07-17T03:22:53.753Z,0
2017-07-17T03:24:15.265Z,0
2017-07-17T03:25:16.624Z,0
2017-07-17T03:26:38.160Z,0
2017-07-17T03:27:39.520Z,0
2017-07-17T03:29:01.033Z,0
2017-07-17T03:30:02.392Z,0
2017-07-17T03:31:23.909Z,0
2017-07-17T03:32:25.268Z,0
2017-07-17T03:33:46.803Z,0
2017-07-17T03:34:48.161Z,0
2017-07-17T03:36:09.674Z,0
2017-07-17T03:37:11.034Z,0
2017-07-17T03:38:32.567Z,0
2017-07-17T03:39:33.925Z,0
2017-07-17T03:40:55.440Z,0
2017-07-17T03:41:56.800Z,0
2017-07-17T03:43:18.332Z,0
2017-07-17T03:44:19.690Z,5
2017-07-17T03:45:41.207Z,5
2017-07-17T03:46:42.568Z,11
2017-07-17T03:48:04.102Z,11
2017-07-17T03:49:05.462Z,16
2017-07-17T03:50:26.982Z,16
2017-07-17T03:51:28.344Z,16
2017-07-17T03:52:49.874Z,11
2017-07-17T03:53:51.286Z,11
2017-07-17T03:55:12.802Z,16
2017-07-17T03:56:14.164Z,16
2017-07-17T03:57:35.695Z,16
2017-07-17T03:58:37.056Z,22
2017-07-17T03:59:58.572Z,22
2017-07-17T04:00:59.941Z,22
2017-07-17T04:02:21.466Z,22
2017-07-17T04:03:22.827Z,22
2017-07-17T04:04:44.341Z,28
2017-07-17T04:05:45.705Z,28
2017-07-17T04:07:07.236Z,28
2017-07-17T04:08:08.596Z,28
2017-07-17T04:09:30.112Z,33
2017-07-17T04:10:31.472Z,33
2017-07-17T04:11:53.007Z,33
2017-07-17T04:12:54.365Z,33
2017-07-17T04:14:15.880Z,33
2017-07-17T04:15:17.243Z,33
2017-07-17T04:16:38.757Z,28
2017-07-17T04:17:40.118Z,28
2017-07-17T04:19:01.651Z,28
2017-07-17T04:20:03.012Z,28
2017-07-17T04:21:24.530Z,28
2017-07-17T04:22:25.888Z,28
2017-07-17T04:23:47.423Z,28
2017-07-17T04:24:48.782Z,28
2017-07-17T04:26:10.296Z,28
2017-07-17T04:27:11.657Z,28
2017-07-17T04:28:33.190Z,28
2017-07-17T04:29:34.548Z,28
2017-07-17T04:30:56.063Z,22
2017-07-17T04:31:57.425Z,22
2017-07-17T04:33:18.961Z,16
2017-07-17T04:34:20.321Z,16
2017-07-17T04:35:41.842Z,16
2017-07-17T04:36:43.204Z,16
2017-07-17T04:38:04.735Z,22
2017-07-17T04:39:06.095Z,22
2017-07-17T04:40:27.612Z,28
2017-07-17T04:41:28.974Z,33
2017-07-17T04:42:50.505Z,39
2017-07-17T04:43:51.867Z,39
2017-07-17T04:45:13.386Z,45
2017-07-17T04:46:14.747Z,45
2017-07-17T04:47:36.279Z,56
2017-07-17T04:48:37.642Z,61
2017-07-17T04:49:59.193Z,67
2017-07-17T04:51:00.516Z,67
2017-07-17T04:52:22.177Z,73
2017-07-17T04:53:23.537Z,67
2017-07-17T04:54:45.054Z,73
2017-07-17T04:55:46.414Z,78
2017-07-17T04:57:07.955Z,95
2017-07-17T04:58:09.314Z,106
2017-07-17T04:59:30.833Z,123
2017-07-17T05:00:32.197Z,129
2017-07-17T05:01:54.702Z,129
2017-07-17T05:02:56.068Z,106
2017-07-17T05:04:17.600Z,90
2017-07-17T05:05:18.958Z,95
2017-07-17T05:06:40.484Z,118
2017-07-17T05:07:41.839Z,140
2017-07-17T05:09:03.373Z,157
2017-07-17T05:10:04.736Z,168
2017-07-17T05:11:26.254Z,185
2017-07-17T05:12:27.618Z,219
2017-07-17T05:13:49.150Z,253
2017-07-17T05:14:50.514Z,281
2017-07-17T05:16:12.162Z,298
2017-07-17T05:17:13.519Z,292
2017-07-17T05:18:35.055Z,253
2017-07-17T05:19:36.417Z,191
2017-07-17T05:20:57.936Z,225
2017-07-17T05:21:59.304Z,275
2017-07-17T05:23:20.832Z,376
2017-07-17T05:24:22.195Z,405
2017-07-17T05:25:43.717Z,438
2017-07-17T05:26:45.079Z,444
2017-07-17T05:28:06.614Z,433
2017-07-17T05:29:07.977Z,489
2017-07-17T05:30:29.505Z,410
2017-07-17T05:31:30.860Z,444
2017-07-17T05:32:52.397Z,388
2017-07-17T05:33:53.759Z,354
2017-07-17T05:35:15.278Z,331
2017-07-17T05:36:16.643Z,315
2017-07-17T05:37:38.181Z,292
2017-07-17T05:38:39.542Z,298
2017-07-17T05:40:01.065Z,292
2017-07-17T05:41:02.430Z,281
2017-07-17T05:42:23.963Z,241
2017-07-17T05:43:25.328Z,208
2017-07-17T05:44:46.848Z,208
2017-07-17T05:45:48.212Z,180
2017-07-17T05:47:09.730Z,146
2017-07-17T05:48:11.092Z,135
2017-07-17T05:49:32.628Z,118
2017-07-17T05:50:33.992Z,112
2017-07-17T05:51:55.513Z,140
2017-07-17T05:52:56.875Z,180
2017-07-17T05:54:18.411Z,202
2017-07-17T05:55:19.773Z,208
2017-07-17T05:56:41.299Z,196
2017-07-17T05:57:42.660Z,180
2017-07-17T05:59:04.192Z,163
2017-07-17T06:00:05.566Z,174
2017-07-17T06:01:27.086Z,174
2017-07-17T06:02:28.449Z,180
2017-07-17T06:03:49.983Z,213
2017-07-17T06:04:51.345Z,219
2017-07-17T06:06:12.865Z,225
2017-07-17T06:07:14.237Z,213
2017-07-17T06:08:35.799Z,225
2017-07-17T06:09:37.129Z,236
2017-07-17T06:10:58.648Z,219
2017-07-17T06:12:00.011Z,185
2017-07-17T06:13:21.546Z,146
2017-07-17T06:14:22.908Z,118
2017-07-17T06:15:44.426Z,112
2017-07-17T06:16:45.790Z,106
2017-07-17T06:18:07.326Z,112
2017-07-17T06:19:08.692Z,123
2017-07-17T06:20:30.208Z,135
2017-07-17T06:21:31.571Z,140
2017-07-17T06:22:53.106Z,157
2017-07-17T06:23:54.466Z,174
2017-07-17T06:25:15.985Z,185
2017-07-17T06:26:17.353Z,213
2017-07-17T06:27:38.890Z,247
2017-07-17T06:28:40.252Z,275
2017-07-17T06:30:01.771Z,320
2017-07-17T06:31:03.133Z,365
2017-07-17T06:32:24.647Z,399
2017-07-17T06:33:26.011Z,399
2017-07-17T06:34:47.566Z,438
2017-07-17T06:35:48.911Z,483
2017-07-17T06:37:10.430Z,540
2017-07-17T06:38:11.795Z,590
2017-07-17T06:39:33.329Z,601
2017-07-17T06:40:34.691Z,585
2017-07-17T06:41:56.209Z,601
2017-07-17T06:42:57.576Z,697
2017-07-17T06:44:19.114Z,933
2017-07-17T06:45:20.479Z,770
2017-07-17T06:46:42.001Z,686
2017-07-17T06:47:43.367Z,781
2017-07-17T06:49:04.907Z,675
2017-07-17T06:50:06.271Z,658
2017-07-17T06:51:27.806Z,663
2017-07-17T06:52:29.163Z,663
2017-07-17T06:53:50.701Z,815
2017-07-17T06:54:52.067Z,663
2017-07-17T06:56:13.590Z,635
2017-07-17T06:57:14.957Z,528
2017-07-17T06:58:36.498Z,337
2017-07-17T06:59:37.862Z,275
2017-07-17T07:00:59.386Z,236
2017-07-17T07:02:00.752Z,281
2017-07-17T07:03:22.294Z,354
2017-07-17T07:04:23.660Z,410
2017-07-17T07:05:45.195Z,483
2017-07-17T07:06:46.567Z,495
2017-07-17T07:08:08.086Z,601
2017-07-17T07:09:09.452Z,742
2017-07-17T07:10:30.976Z,635
2017-07-17T07:11:32.341Z,517
2017-07-17T07:12:53.903Z,517
2017-07-17T07:13:55.232Z,579
2017-07-17T07:15:16.770Z,725
2017-07-17T07:16:18.134Z,365
2017-07-17T07:17:39.656Z,320
2017-07-17T07:18:41.023Z,309
2017-07-17T07:20:02.569Z,742
2017-07-17T07:21:03.932Z,736
2017-07-17T07:22:25.457Z,753
2017-07-17T07:23:26.825Z,776
2017-07-17T07:24:48.369Z,742
2017-07-17T07:25:49.736Z,624
2017-07-17T07:27:11.261Z,399
2017-07-17T07:28:12.629Z,376
2017-07-17T07:29:34.170Z,376
2017-07-17T07:30:35.541Z,388
2017-07-17T07:31:57.064Z,393
2017-07-17T07:32:58.433Z,405
2017-07-17T07:34:19.977Z,388
2017-07-17T07:35:21.342Z,343
2017-07-17T07:36:42.868Z,331
2017-07-17T07:37:44.233Z,343
2017-07-17T07:39:05.770Z,360
2017-07-17T07:40:07.138Z,382
2017-07-17T07:41:28.659Z,438
2017-07-17T07:42:30.028Z,517
2017-07-17T07:43:51.566Z,545
2017-07-17T07:44:52.932Z,444
2017-07-17T07:46:14.455Z,405
2017-07-17T07:47:15.821Z,455
2017-07-17T07:48:37.362Z,573
2017-07-17T07:49:38.723Z,635
2017-07-17T07:51:00.246Z,635
2017-07-17T07:52:01.614Z,590
2017-07-17T07:53:23.151Z,613
2017-07-17T07:54:24.517Z,540
2017-07-17T07:55:46.041Z,517
2017-07-17T07:56:47.405Z,528
2017-07-17T07:58:08.926Z,551
2017-07-17T07:59:10.292Z,556
2017-07-17T08:00:31.831Z,528
2017-07-17T08:01:33.194Z,573
2017-07-17T08:02:54.718Z,652
2017-07-17T08:03:56.086Z,686
2017-07-17T08:05:17.627Z,675
2017-07-17T08:06:18.990Z,596
2017-07-17T08:07:40.513Z,511
2017-07-17T08:08:41.881Z,517
2017-07-17T08:10:03.418Z,489
2017-07-17T08:11:04.783Z,489
2017-07-17T08:12:26.305Z,523
2017-07-17T08:13:27.672Z,573
2017-07-17T08:14:49.211Z,596
2017-07-17T08:15:50.579Z,556
2017-07-17T08:17:12.099Z,495
2017-07-17T08:18:13.471Z,455
2017-07-17T08:19:35.002Z,478
2017-07-17T08:20:36.366Z,450
2017-07-17T08:21:57.890Z,466
2017-07-17T08:22:59.254Z,489
2017-07-17T08:24:20.792Z,511
2017-07-17T08:25:22.158Z,444
2017-07-17T08:26:43.682Z,416
2017-07-17T08:27:45.049Z,376
2017-07-17T08:29:06.585Z,388
2017-07-17T08:30:07.951Z,410
2017-07-17T08:31:29.474Z,450
2017-07-17T08:32:30.841Z,472
2017-07-17T08:33:52.646Z,500
2017-07-17T08:34:54.047Z,495
2017-07-17T08:36:15.573Z,382
2017-07-17T08:37:16.938Z,360
2017-07-17T08:38:38.477Z,309
2017-07-17T08:39:40.049Z,315
2017-07-17T08:41:01.886Z,337
2017-07-17T08:42:03.480Z,348
2017-07-17T08:43:25.249Z,348
2017-07-17T08:44:26.621Z,360
2017-07-17T08:45:48.156Z,371
2017-07-17T08:46:49.861Z,354
2017-07-17T08:48:11.475Z,365
2017-07-17T08:49:12.837Z,343
2017-07-17T08:50:34.379Z,331
2017-07-17T08:51:35.744Z,326
2017-07-17T08:52:57.267Z,348
2017-07-17T08:53:58.634Z,393
2017-07-17T08:55:20.327Z,433
2017-07-17T08:56:21.692Z,433
2017-07-17T08:57:43.213Z,416
2017-07-17T08:58:44.578Z,410
2017-07-17T09:00:06.120Z,416
2017-07-17T09:01:07.486Z,421
2017-07-17T09:02:29.008Z,483
2017-07-17T09:03:30.372Z,483
2017-07-17T09:04:51.916Z,478
2017-07-17T09:05:53.280Z,421
2017-07-17T09:07:14.801Z,438
2017-07-17T09:08:16.169Z,444
2017-07-17T09:09:37.710Z,455
2017-07-17T09:10:39.075Z,455
2017-07-17T09:12:00.599Z,455
2017-07-17T09:13:01.964Z,483
2017-07-17T09:14:24.390Z,489
2017-07-17T09:15:25.725Z,455
2017-07-17T09:16:47.252Z,427
2017-07-17T09:17:48.617Z,410
2017-07-17T09:19:10.162Z,461
2017-07-17T09:20:11.523Z,540
2017-07-17T09:21:33.049Z,579
2017-07-17T09:22:34.414Z,601
2017-07-17T09:23:55.961Z,562
2017-07-17T09:24:57.326Z,489
2017-07-17T09:26:18.850Z,405
2017-07-17T09:27:20.220Z,326
2017-07-17T09:28:41.739Z,320
2017-07-17T09:29:43.105Z,331
2017-07-17T09:31:04.645Z,309
2017-07-17T09:32:06.011Z,315
2017-07-17T09:33:27.531Z,303
2017-07-17T09:34:28.898Z,298
2017-07-17T09:35:50.697Z,298
2017-07-17T09:36:52.097Z,303
2017-07-17T09:38:13.624Z,315
2017-07-17T09:39:14.988Z,331
2017-07-17T09:40:37.570Z,337
2017-07-17T09:41:39.078Z,337
2017-07-17T09:43:00.715Z,331
2017-07-17T09:44:02.116Z,337
2017-07-17T09:45:23.733Z,337
2017-07-17T09:46:25.686Z,354
2017-07-17T09:47:47.203Z,365
2017-07-17T09:48:48.571Z,405
2017-07-17T09:50:10.113Z,466
2017-07-17T09:51:11.479Z,455
2017-07-17T09:52:33.002Z,376
2017-07-17T09:53:34.371Z,388
2017-07-17T09:54:55.912Z,376
2017-07-17T09:55:57.284Z,348
2017-07-17T09:57:19.326Z,315
2017-07-17T09:58:20.684Z,303
2017-07-17T09:59:42.233Z,286
2017-07-17T10:00:43.598Z,303
2017-07-17T10:02:05.117Z,326
2017-07-17T10:03:06.483Z,337
2017-07-17T10:04:28.031Z,309
2017-07-17T10:05:29.395Z,303
2017-07-17T10:06:50.915Z,298
2017-07-17T10:07:52.280Z,292
2017-07-17T10:09:13.822Z,286
2017-07-17T10:10:15.188Z,281
2017-07-17T10:11:36.712Z,281
2017-07-17T10:12:38.078Z,281
2017-07-17T10:13:59.671Z,275
2017-07-17T10:15:01.046Z,275
2017-07-17T10:16:22.586Z,275
2017-07-17T10:17:23.949Z,275
2017-07-17T10:18:45.485Z,275
2017-07-17T10:19:47.330Z,270
2017-07-17T10:21:09.469Z,270
2017-07-17T10:22:10.832Z,292
2017-07-17T10:23:32.357Z,320
2017-07-17T10:24:33.725Z,343
2017-07-17T10:25:55.264Z,337
2017-07-17T10:26:57.046Z,326
2017-07-17T10:28:18.576Z,298
2017-07-17T10:29:20.061Z,281
2017-07-17T10:30:41.605Z,275
2017-07-17T10:31:42.974Z,275
2017-07-17T10:33:04.498Z,292
2017-07-17T10:34:05.863Z,292
2017-07-17T10:35:27.561Z,292
2017-07-17T10:36:28.927Z,286
2017-07-17T10:37:50.448Z,281
2017-07-17T10:38:52.737Z,281
2017-07-17T10:40:14.277Z,275
2017-07-17T10:41:15.641Z,286
2017-07-17T10:42:37.531Z,292
2017-07-17T10:43:38.896Z,286
2017-07-17T10:45:00.453Z,275
2017-07-17T10:46:01.826Z,270
2017-07-17T10:47:23.582Z,286
2017-07-17T10:48:24.946Z,286
2017-07-17T10:49:46.640Z,275
2017-07-17T10:50:48.038Z,275
2017-07-17T10:52:09.562Z,275
2017-07-17T10:53:10.966Z,281
2017-07-17T10:54:32.516Z,286
2017-07-17T10:55:33.883Z,292
2017-07-17T10:56:55.450Z,298
2017-07-17T10:57:56.856Z,303
2017-07-17T10:59:18.379Z,331
2017-07-17T11:00:19.780Z,348
2017-07-17T11:01:41.409Z,348
2017-07-17T11:02:42.774Z,354
2017-07-17T11:04:04.338Z,354
2017-07-17T11:05:05.706Z,343
2017-07-17T11:06:27.245Z,343
2017-07-17T11:07:28.614Z,337
2017-07-17T11:08:50.134Z,331
2017-07-17T11:09:51.537Z,331
2017-07-17T11:11:13.151Z,320
2017-07-17T11:12:14.523Z,315
2017-07-17T11:13:36.056Z,315
2017-07-17T11:14:37.428Z,298
2017-07-17T11:15:59.043Z,292
2017-07-17T11:17:00.420Z,286
2017-07-17T11:18:21.948Z,281
2017-07-17T11:19:23.311Z,275
2017-07-17T11:20:44.934Z,264
2017-07-17T11:21:46.375Z,264
2017-07-17T11:23:07.955Z,270
2017-07-17T11:24:09.363Z,270
2017-07-17T11:25:31.121Z,270
2017-07-17T11:26:32.506Z,270
2017-07-17T11:27:54.095Z,264
2017-07-17T11:28:55.533Z,264
2017-07-17T11:30:17.078Z,258
2017-07-17T11:31:18.439Z,258
2017-07-17T11:33:41.226Z,264
2017-07-17T11:35:02.806Z,264
2017-07-17T11:36:04.232Z,264
2017-07-17T11:37:25.824Z,258
2017-07-17T11:38:27.199Z,258
2017-07-17T11:39:48.748Z,258
2017-07-17T11:40:50.115Z,258
2017-07-17T11:42:11.668Z,253
2017-07-17T11:43:13.985Z,253
2017-07-17T11:44:35.596Z,253
2017-07-17T11:45:36.962Z,253
2017-07-17T11:56:12.109Z,247
2017-07-17T11:57:13.894Z,241
2017-07-17T11:58:35.467Z,241
2017-07-17T11:59:37.282Z,241
2017-07-17T12:00:59.454Z,241
2017-07-17T12:02:00.871Z,247
2017-07-17T12:03:22.469Z,247
2017-07-17T12:04:23.882Z,253
2017-07-17T12:05:45.483Z,253
2017-07-17T12:06:46.856Z,253
2017-07-17T12:08:08.421Z,253
2017-07-17T12:09:09.783Z,258
2017-07-17T12:10:31.324Z,258
2017-07-17T12:11:32.693Z,258
2017-07-17T12:12:54.216Z,258
2017-07-17T12:13:55.584Z,253
2017-07-17T12:15:17.272Z,253
2017-07-17T12:16:18.656Z,258
2017-07-17T12:17:40.173Z,264
2017-07-17T12:18:41.541Z,270
2017-07-17T12:20:03.071Z,270
2017-07-17T12:21:04.429Z,264
2017-07-17T12:22:26.011Z,253
2017-07-17T12:23:27.379Z,253
2017-07-17T12:24:48.908Z,247
2017-07-17T12:25:50.273Z,241
2017-07-17T12:27:11.810Z,236
2017-07-17T12:28:13.184Z,236
2017-07-17T12:29:34.699Z,230
2017-07-17T12:30:36.065Z,230
2017-07-17T12:31:57.644Z,230
2017-07-17T12:32:59.134Z,230
2017-07-17T12:34:20.673Z,225
2017-07-17T12:35:22.037Z,225
2017-07-17T12:36:43.580Z,225
2017-07-17T12:37:44.945Z,219
2017-07-17T12:39:06.650Z,219
2017-07-17T12:40:08.016Z,219
2017-07-17T12:41:29.558Z,219
2017-07-17T12:42:30.923Z,213
2017-07-17T12:43:53.502Z,213
2017-07-17T12:44:54.867Z,213
2017-07-17T12:46:16.426Z,213
2017-07-17T12:47:17.771Z,213
2017-07-17T12:48:39.348Z,213
2017-07-17T12:49:40.731Z,213
2017-07-17T12:51:02.276Z,213
2017-07-17T12:52:03.641Z,213
2017-07-17T12:53:25.163Z,219
2017-07-17T12:54:26.537Z,219
2017-07-17T12:55:48.072Z,219
2017-07-17T12:56:49.438Z,219
2017-07-17T12:58:10.962Z,219
2017-07-17T12:59:12.325Z,219
2017-07-17T13:00:33.867Z,230
2017-07-17T13:01:35.322Z,230
2017-07-17T13:02:56.852Z,230
2017-07-17T13:03:58.225Z,225
2017-07-17T13:05:19.737Z,225
2017-07-17T13:06:21.105Z,225
2017-07-17T13:07:42.656Z,219
2017-07-17T13:08:44.018Z,219
2017-07-17T13:10:05.544Z,219
2017-07-17T13:11:06.904Z,213
2017-07-17T13:12:28.689Z,213
2017-07-17T13:13:30.054Z,213
2017-07-17T13:14:54.947Z,213
2017-07-17T13:15:56.328Z,213
2017-07-17T13:17:17.872Z,213
2017-07-17T13:18:20.770Z,213
2017-07-17T13:19:42.252Z,213
2017-07-17T13:20:44.174Z,219
2017-07-17T13:22:05.657Z,213
2017-07-17T13:23:07.917Z,213
2017-07-17T13:24:29.380Z,213
2017-07-17T13:25:30.737Z,213
2017-07-17T13:26:52.278Z,213
2017-07-17T13:27:54.292Z,213
2017-07-17T13:29:15.853Z,213
2017-07-17T13:30:17.222Z,213
2017-07-17T13:31:38.767Z,219
2017-07-17T13:32:40.130Z,225
2017-07-17T13:34:01.662Z,236
2017-07-17T13:35:03.027Z,236
2017-07-17T13:36:25.588Z,225
2017-07-17T13:37:26.980Z,219
2017-07-17T13:38:48.483Z,213
2017-07-17T13:39:49.852Z,208
2017-07-17T13:41:11.390Z,208
2017-07-17T13:42:12.756Z,208
2017-07-17T13:43:34.279Z,208
2017-07-17T13:44:35.645Z,208
2017-07-17T13:45:57.189Z,208
2017-07-17T13:46:58.554Z,202
2017-07-17T13:48:20.087Z,208
2017-07-17T13:49:21.450Z,208
2017-07-17T13:50:42.985Z,208
2017-07-17T13:51:44.359Z,208
2017-07-17T13:53:05.905Z,208
2017-07-17T13:54:07.284Z,208
2017-07-17T13:55:28.812Z,208
2017-07-17T13:56:30.185Z,208
2017-07-17T13:57:51.736Z,208
2017-07-17T13:58:53.107Z,208
2017-07-17T14:00:14.635Z,208
2017-07-17T14:01:16.006Z,208
2017-07-17T14:02:37.559Z,208
2017-07-17T14:03:38.924Z,208
2017-07-17T14:05:00.449Z,208
2017-07-17T14:06:01.823Z,208
2017-07-17T14:07:23.365Z,208
2017-07-17T14:08:24.735Z,208
2017-07-17T14:09:46.764Z,208
2017-07-17T14:10:48.136Z,202
2017-07-17T14:12:09.702Z,202
2017-07-17T14:13:11.075Z,208
2017-07-17T14:14:32.601Z,208
2017-07-17T14:15:33.972Z,208
2017-07-17T14:16:55.523Z,208
2017-07-17T14:17:56.891Z,208
2017-07-17T14:19:18.420Z,208
2017-07-17T14:20:19.792Z,208
2017-07-17T14:21:41.350Z,208
2017-07-17T14:22:42.707Z,213
2017-07-17T14:24:04.239Z,219
2017-07-17T14:25:05.609Z,225
2017-07-17T14:26:27.154Z,225
2017-07-17T14:27:28.524Z,225
2017-07-17T14:28:50.053Z,225
2017-07-17T14:29:51.455Z,225
2017-07-17T14:31:13.000Z,213
2017-07-17T14:32:14.377Z,213
2017-07-17T14:33:35.992Z,213
2017-07-17T14:34:37.362Z,208
2017-07-17T14:36:00.763Z,208
2017-07-17T14:37:02.498Z,208
2017-07-17T14:38:24.686Z,208
2017-07-17T14:39:26.066Z,208
2017-07-17T14:40:48.613Z,208
2017-07-17T14:41:49.987Z,208
2017-07-17T14:43:11.535Z,213
2017-07-17T14:44:12.916Z,213
2017-07-17T14:45:34.432Z,213
2017-07-17T14:46:35.804Z,213
2017-07-17T14:47:58.032Z,219
2017-07-17T14:48:59.412Z,219
2017-07-17T14:50:20.934Z,230
2017-07-17T14:51:22.312Z,236
2017-07-17T14:52:44.030Z,236
2017-07-17T14:53:45.464Z,230
2017-07-17T14:55:07.064Z,219
2017-07-17T14:56:08.462Z,219
2017-07-17T14:57:30.024Z,219
2017-07-17T14:58:31.408Z,219
2017-07-17T14:59:52.974Z,225
2017-07-17T15:00:54.467Z,225
2017-07-17T15:02:16.140Z,225
2017-07-17T15:03:17.511Z,225
2017-07-17T15:04:39.771Z,230
2017-07-17T15:05:41.175Z,230
2017-07-17T15:07:02.719Z,225
2017-07-17T15:08:04.090Z,230
2017-07-17T15:09:25.619Z,236
2017-07-17T15:10:27.008Z,241
2017-07-17T15:11:48.650Z,241
2017-07-17T15:12:50.086Z,241
2017-07-17T15:14:11.620Z,258
2017-07-17T15:15:12.988Z,275
2017-07-17T15:16:34.639Z,298
2017-07-17T15:17:36.016Z,303
2017-07-17T15:18:57.788Z,309
2017-07-17T15:19:59.184Z,292
2017-07-17T15:21:20.752Z,258
2017-07-17T15:22:22.125Z,236
2017-07-17T15:23:44.665Z,225
2017-07-17T15:24:46.035Z,225
2017-07-17T15:26:07.580Z,225
2017-07-17T15:27:09.009Z,219
2017-07-17T15:28:30.574Z,225
2017-07-17T15:29:31.948Z,230
2017-07-17T15:30:53.493Z,230
2017-07-17T15:31:54.906Z,225
2017-07-17T15:33:16.622Z,219
2017-07-17T15:34:18.009Z,219
2017-07-17T15:35:39.562Z,225
2017-07-17T15:36:40.934Z,225
2017-07-17T15:38:02.495Z,219
2017-07-17T15:39:03.878Z,219
2017-07-17T15:40:25.429Z,219
2017-07-17T15:41:26.820Z,219
2017-07-17T15:42:48.354Z,219
2017-07-17T15:43:49.725Z,219
2017-07-17T15:45:11.301Z,219
2017-07-17T15:46:12.671Z,219
2017-07-17T15:47:34.213Z,225
2017-07-17T15:48:35.817Z,225
2017-07-17T15:49:57.442Z,230
2017-07-17T15:50:58.936Z,230
2017-07-17T15:52:20.618Z,236
2017-07-17T15:53:22.100Z,236
2017-07-17T15:54:43.639Z,241
2017-07-17T15:55:45.163Z,241
2017-07-17T15:57:06.709Z,241
2017-07-17T15:58:08.082Z,241
2017-07-17T15:59:29.608Z,258
2017-07-17T16:00:30.977Z,281
2017-07-17T16:01:52.640Z,292
2017-07-17T16:02:54.083Z,303
2017-07-17T16:04:15.613Z,303
2017-07-17T16:05:16.997Z,292
2017-07-17T16:06:38.561Z,275
2017-07-17T16:07:40.854Z,253
2017-07-17T16:09:02.366Z,230
